Newport, Kentucky
Current Conditions -  °F | °C
As of 11:53 AM on Friday 28 Nov 2014 (Local Time) from KLUK Reporting Station
Broken Clouds Broken Clouds  
Wind Chill: 24°   Ceiling: 9500
Heat Index: 32°   Visibility: 10mi
Dew Point: 19°   Wind: 10mph
Humidity: 59%   Direction: 200°SSW
Pressure: 30.36"   Gusts: NA
Location:  39.09°N, 84.49°W
Report Text: KLUK 281653Z 20009KT 10SM SCT075 BKN095 00/M07 A3036 RMK AO2 SLP286 T00001072
Loading
Personal Weather Stations






























Interactive Weather Map New forecast layout! Learn more

10-Day Weather Forecast

Advertisements
Track Severe Weather on mobile